sensor_id;sensor_type;location;lat;lon;timestamp;P1;durP1;ratioP1;P2;durP2;ratioP2
65037;SDS011;51605;47.040;15.294;2023-03-23T00:02:11;1.25;;;1.10;;
65037;SDS011;51605;47.040;15.294;2023-03-23T00:04:37;1.48;;;1.20;;
65037;SDS011;51605;47.040;15.294;2023-03-23T00:07:02;1.20;;;1.10;;
65037;SDS011;51605;47.040;15.294;2023-03-23T00:09:28;1.90;;;1.27;;
65037;SDS011;51605;47.040;15.294;2023-03-23T00:11:55;2.20;;;1.25;;
65037;SDS011;51605;47.040;15.294;2023-03-23T00:16:48;1.45;;;1.15;;
65037;SDS011;51605;47.040;15.294;2023-03-23T00:19:15;1.42;;;1.20;;
65037;SDS011;51605;47.040;15.294;2023-03-23T00:21:44;1.85;;;1.30;;
65037;SDS011;51605;47.040;15.294;2023-03-23T00:24:14;1.33;;;1.10;;
65037;SDS011;51605;47.040;15.294;2023-03-23T00:26:41;1.92;;;1.20;;
65037;SDS011;51605;47.040;15.294;2023-03-23T00:29:11;1.50;;;1.10;;
65037;SDS011;51605;47.040;15.294;2023-03-23T00:31:39;1.85;;;1.20;;
65037;SDS011;51605;47.040;15.294;2023-03-23T00:34:06;1.92;;;1.20;;
65037;SDS011;51605;47.040;15.294;2023-03-23T00:36:32;1.50;;;1.13;;
65037;SDS011;51605;47.040;15.294;2023-03-23T00:39:00;1.10;;;1.00;;
65037;SDS011;51605;47.040;15.294;2023-03-23T00:41:27;1.80;;;1.20;;
65037;SDS011;51605;47.040;15.294;2023-03-23T00:43:56;1.30;;;1.10;;
65037;SDS011;51605;47.040;15.294;2023-03-23T00:46:23;1.20;;;1.10;;
65037;SDS011;51605;47.040;15.294;2023-03-23T00:48:49;1.58;;;1.10;;
65037;SDS011;51605;47.040;15.294;2023-03-23T00:51:16;1.75;;;1.20;;
65037;SDS011;51605;47.040;15.294;2023-03-23T00:56:08;1.60;;;1.20;;
65037;SDS011;51605;47.040;15.294;2023-03-23T00:58:34;1.23;;;1.10;;
65037;SDS011;51605;47.040;15.294;2023-03-23T01:01:00;2.13;;;1.10;;
65037;SDS011;51605;47.040;15.294;2023-03-23T01:03:26;1.10;;;1.00;;
65037;SDS011;51605;47.040;15.294;2023-03-23T01:05:53;3.57;;;1.30;;
65037;SDS011;51605;47.040;15.294;2023-03-23T01:08:20;1.67;;;1.20;;
65037;SDS011;51605;47.040;15.294;2023-03-23T01:10:47;2.05;;;1.17;;
65037;SDS011;51605;47.040;15.294;2023-03-23T01:13:13;1.48;;;1.10;;
65037;SDS011;51605;47.040;15.294;2023-03-23T01:15:40;1.60;;;1.10;;
65037;SDS011;51605;47.040;15.294;2023-03-23T01:18:07;1.58;;;1.10;;
65037;SDS011;51605;47.040;15.294;2023-03-23T01:20:34;1.20;;;1.00;;
65037;SDS011;51605;47.040;15.294;2023-03-23T01:23:01;1.33;;;1.13;;
65037;SDS011;51605;47.040;15.294;2023-03-23T01:25:27;1.55;;;1.17;;
65037;SDS011;51605;47.040;15.294;2023-03-23T01:27:55;1.17;;;1.00;;
65037;SDS011;51605;47.040;15.294;2023-03-23T01:30:21;1.13;;;1.00;;
65037;SDS011;51605;47.040;15.294;2023-03-23T01:32:47;1.47;;;1.00;;
65037;SDS011;51605;47.040;15.294;2023-03-23T01:35:13;1.27;;;1.10;;
65037;SDS011;51605;47.040;15.294;2023-03-23T01:40:05;1.33;;;1.10;;
65037;SDS011;51605;47.040;15.294;2023-03-23T01:42:33;1.20;;;1.08;;
65037;SDS011;51605;47.040;15.294;2023-03-23T01:47:45;1.42;;;1.00;;
65037;SDS011;51605;47.040;15.294;2023-03-23T01:50:18;1.75;;;1.20;;
65037;SDS011;51605;47.040;15.294;2023-03-23T01:52:47;1.20;;;0.98;;
65037;SDS011;51605;47.040;15.294;2023-03-23T01:55:14;1.65;;;1.10;;
65037;SDS011;51605;47.040;15.294;2023-03-23T01:57:40;1.77;;;1.10;;
65037;SDS011;51605;47.040;15.294;2023-03-23T02:00:07;1.85;;;1.10;;
65037;SDS011;51605;47.040;15.294;2023-03-23T02:02:39;1.20;;;1.00;;
65037;SDS011;51605;47.040;15.294;2023-03-23T02:05:12;1.77;;;1.20;;
65037;SDS011;51605;47.040;15.294;2023-03-23T02:07:39;1.40;;;1.10;;
65037;SDS011;51605;47.040;15.294;2023-03-23T02:10:06;1.38;;;1.10;;
65037;SDS011;51605;47.040;15.294;2023-03-23T02:12:32;1.10;;;1.00;;
65037;SDS011;51605;47.040;15.294;2023-03-23T02:14:58;1.20;;;1.00;;
65037;SDS011;51605;47.040;15.294;2023-03-23T02:17:36;1.10;;;1.00;;
65037;SDS011;51605;47.040;15.294;2023-03-23T02:20:33;1.60;;;1.10;;
65037;SDS011;51605;47.040;15.294;2023-03-23T02:23:07;1.42;;;1.05;;
65037;SDS011;51605;47.040;15.294;2023-03-23T02:39:12;1.25;;;1.15;;
65037;SDS011;51605;47.040;15.294;2023-03-23T02:41:47;1.10;;;1.00;;
65037;SDS011;51605;47.040;15.294;2023-03-23T02:44:18;1.23;;;1.08;;
65037;SDS011;51605;47.040;15.294;2023-03-23T02:46:44;1.42;;;1.15;;
65037;SDS011;51605;47.040;15.294;2023-03-23T02:49:11;1.30;;;1.10;;
65037;SDS011;51605;47.040;15.294;2023-03-23T02:51:40;1.48;;;1.10;;
65037;SDS011;51605;47.040;15.294;2023-03-23T02:54:08;1.20;;;1.10;;
65037;SDS011;51605;47.040;15.294;2023-03-23T02:56:35;1.38;;;1.10;;
65037;SDS011;51605;47.040;15.294;2023-03-23T02:59:01;1.02;;;0.93;;
65037;SDS011;51605;47.040;15.294;2023-03-23T03:04:01;1.58;;;1.10;;
65037;SDS011;51605;47.040;15.294;2023-03-23T03:12:30;1.25;;;1.00;;
65037;SDS011;51605;47.040;15.294;2023-03-23T03:14:59;1.50;;;1.10;;
65037;SDS011;51605;47.040;15.294;2023-03-23T03:17:48;1.33;;;1.17;;
65037;SDS011;51605;47.040;15.294;2023-03-23T03:20:22;1.15;;;1.05;;
65037;SDS011;51605;47.040;15.294;2023-03-23T03:22:51;2.22;;;1.00;;
65037;SDS011;51605;47.040;15.294;2023-03-23T03:27:45;1.00;;;0.90;;
65037;SDS011;51605;47.040;15.294;2023-03-23T03:30:14;1.73;;;1.10;;
65037;SDS011;51605;47.040;15.294;2023-03-23T03:32:44;1.73;;;1.10;;
65037;SDS011;51605;47.040;15.294;2023-03-23T03:35:16;1.55;;;1.13;;
65037;SDS011;51605;47.040;15.294;2023-03-23T03:40:18;0.98;;;0.90;;
65037;SDS011;51605;47.040;15.294;2023-03-23T03:42:45;1.13;;;1.02;;
65037;SDS011;51605;47.040;15.294;2023-03-23T03:45:15;1.07;;;0.97;;
65037;SDS011;51605;47.040;15.294;2023-03-23T03:47:42;1.10;;;1.00;;
65037;SDS011;51605;47.040;15.294;2023-03-23T03:50:09;0.90;;;0.90;;
65037;SDS011;51605;47.040;15.294;2023-03-23T03:52:35;0.90;;;0.88;;
65037;SDS011;51605;47.040;15.294;2023-03-23T03:55:03;1.10;;;1.00;;
65037;SDS011;51605;47.040;15.294;2023-03-23T03:57:30;1.20;;;1.00;;
65037;SDS011;51605;47.040;15.294;2023-03-23T03:59:55;1.38;;;1.10;;
65037;SDS011;51605;47.040;15.294;2023-03-23T04:02:21;1.00;;;0.90;;
65037;SDS011;51605;47.040;15.294;2023-03-23T04:04:47;1.17;;;1.00;;
65037;SDS011;51605;47.040;15.294;2023-03-23T04:07:14;1.10;;;1.00;;
65037;SDS011;51605;47.040;15.294;2023-03-23T04:09:41;1.08;;;0.98;;
65037;SDS011;51605;47.040;15.294;2023-03-23T04:12:14;0.95;;;0.90;;
65037;SDS011;51605;47.040;15.294;2023-03-23T04:14:40;1.23;;;1.00;;
65037;SDS011;51605;47.040;15.294;2023-03-23T04:17:06;1.17;;;1.00;;
65037;SDS011;51605;47.040;15.294;2023-03-23T04:19:34;1.15;;;1.02;;
65037;SDS011;51605;47.040;15.294;2023-03-23T04:22:01;1.20;;;0.93;;
65037;SDS011;51605;47.040;15.294;2023-03-23T04:24:27;1.10;;;0.93;;
65037;SDS011;51605;47.040;15.294;2023-03-23T04:26:57;1.15;;;1.05;;
65037;SDS011;51605;47.040;15.294;2023-03-23T04:29:22;0.98;;;0.95;;
65037;SDS011;51605;47.040;15.294;2023-03-23T04:31:48;1.13;;;0.98;;
65037;SDS011;51605;47.040;15.294;2023-03-23T04:34:15;1.10;;;1.00;;
65037;SDS011;51605;47.040;15.294;2023-03-23T04:36:41;1.25;;;1.15;;
65037;SDS011;51605;47.040;15.294;2023-03-23T04:39:07;0.95;;;0.93;;
65037;SDS011;51605;47.040;15.294;2023-03-23T04:41:38;1.30;;;1.10;;
65037;SDS011;51605;47.040;15.294;2023-03-23T04:44:06;1.60;;;1.00;;
65037;SDS011;51605;47.040;15.294;2023-03-23T04:46:32;1.23;;;1.00;;
65037;SDS011;51605;47.040;15.294;2023-03-23T04:48:58;1.13;;;1.00;;
65037;SDS011;51605;47.040;15.294;2023-03-23T04:51:27;1.15;;;1.05;;
65037;SDS011;51605;47.040;15.294;2023-03-23T04:53:54;1.20;;;1.10;;
65037;SDS011;51605;47.040;15.294;2023-03-23T04:56:20;1.30;;;1.10;;
65037;SDS011;51605;47.040;15.294;2023-03-23T04:58:46;1.25;;;1.02;;
65037;SDS011;51605;47.040;15.294;2023-03-23T05:01:12;1.42;;;1.00;;
65037;SDS011;51605;47.040;15.294;2023-03-23T05:03:42;1.13;;;0.95;;
65037;SDS011;51605;47.040;15.294;2023-03-23T05:06:09;1.10;;;0.93;;
65037;SDS011;51605;47.040;15.294;2023-03-23T05:08:34;1.60;;;1.20;;
65037;SDS011;51605;47.040;15.294;2023-03-23T05:11:04;1.15;;;1.00;;
65037;SDS011;51605;47.040;15.294;2023-03-23T05:15:57;1.30;;;1.10;;
65037;SDS011;51605;47.040;15.294;2023-03-23T05:18:22;1.63;;;0.98;;
65037;SDS011;51605;47.040;15.294;2023-03-23T05:20:48;1.50;;;1.00;;
65037;SDS011;51605;47.040;15.294;2023-03-23T05:23:17;1.13;;;1.00;;
65037;SDS011;51605;47.040;15.294;2023-03-23T05:25:51;1.20;;;1.10;;
65037;SDS011;51605;47.040;15.294;2023-03-23T05:28:20;1.40;;;1.10;;
65037;SDS011;51605;47.040;15.294;2023-03-23T05:30:47;1.20;;;1.00;;
65037;SDS011;51605;47.040;15.294;2023-03-23T05:33:13;1.10;;;1.00;;
65037;SDS011;51605;47.040;15.294;2023-03-23T05:35:38;1.10;;;1.00;;
65037;SDS011;51605;47.040;15.294;2023-03-23T05:38:04;1.10;;;0.90;;
65037;SDS011;51605;47.040;15.294;2023-03-23T05:40:30;1.80;;;1.00;;
65037;SDS011;51605;47.040;15.294;2023-03-23T05:42:55;1.00;;;0.90;;
65037;SDS011;51605;47.040;15.294;2023-03-23T05:45:24;1.38;;;1.00;;
65037;SDS011;51605;47.040;15.294;2023-03-23T05:47:50;1.75;;;1.13;;
65037;SDS011;51605;47.040;15.294;2023-03-23T05:50:16;1.10;;;1.00;;
65037;SDS011;51605;47.040;15.294;2023-03-23T05:52:42;1.67;;;1.10;;
65037;SDS011;51605;47.040;15.294;2023-03-23T05:55:08;1.20;;;1.05;;
65037;SDS011;51605;47.040;15.294;2023-03-23T05:57:34;1.40;;;1.10;;
65037;SDS011;51605;47.040;15.294;2023-03-23T06:00:00;1.35;;;0.95;;
65037;SDS011;51605;47.040;15.294;2023-03-23T06:02:30;1.20;;;0.90;;
65037;SDS011;51605;47.040;15.294;2023-03-23T06:04:56;1.15;;;0.90;;
65037;SDS011;51605;47.040;15.294;2023-03-23T06:07:23;3.15;;;1.00;;
65037;SDS011;51605;47.040;15.294;2023-03-23T06:09:49;1.63;;;1.20;;
65037;SDS011;51605;47.040;15.294;2023-03-23T06:12:15;1.80;;;1.20;;
65037;SDS011;51605;47.040;15.294;2023-03-23T06:14:45;2.90;;;1.10;;
65037;SDS011;51605;47.040;15.294;2023-03-23T06:17:11;1.50;;;1.20;;
65037;SDS011;51605;47.040;15.294;2023-03-23T06:19:37;1.13;;;1.02;;
65037;SDS011;51605;47.040;15.294;2023-03-23T06:22:03;1.60;;;1.00;;
65037;SDS011;51605;47.040;15.294;2023-03-23T06:26:57;1.55;;;1.00;;
65037;SDS011;51605;47.040;15.294;2023-03-23T06:29:23;1.58;;;1.10;;
65037;SDS011;51605;47.040;15.294;2023-03-23T06:31:58;1.30;;;1.10;;
65037;SDS011;51605;47.040;15.294;2023-03-23T06:34:25;1.13;;;1.00;;
65037;SDS011;51605;47.040;15.294;2023-03-23T06:36:51;1.27;;;1.08;;
65037;SDS011;51605;47.040;15.294;2023-03-23T06:39:17;1.10;;;0.98;;
65037;SDS011;51605;47.040;15.294;2023-03-23T06:41:43;1.67;;;1.00;;
65037;SDS011;51605;47.040;15.294;2023-03-23T06:44:08;1.10;;;1.00;;
65037;SDS011;51605;47.040;15.294;2023-03-23T06:46:38;1.42;;;0.93;;
65037;SDS011;51605;47.040;15.294;2023-03-23T06:49:03;1.10;;;1.00;;
65037;SDS011;51605;47.040;15.294;2023-03-23T06:51:30;3.42;;;1.35;;
65037;SDS011;51605;47.040;15.294;2023-03-23T06:53:55;1.20;;;1.08;;
65037;SDS011;51605;47.040;15.294;2023-03-23T06:56:22;0.90;;;0.90;;
65037;SDS011;51605;47.040;15.294;2023-03-23T06:58:48;1.30;;;1.10;;
65037;SDS011;51605;47.040;15.294;2023-03-23T07:01:14;1.55;;;1.08;;
65037;SDS011;51605;47.040;15.294;2023-03-23T07:03:41;1.10;;;1.00;;
65037;SDS011;51605;47.040;15.294;2023-03-23T07:06:07;2.53;;;1.20;;
65037;SDS011;51605;47.040;15.294;2023-03-23T07:08:34;1.33;;;0.90;;
65037;SDS011;51605;47.040;15.294;2023-03-23T07:11:00;1.48;;;1.00;;
65037;SDS011;51605;47.040;15.294;2023-03-23T07:13:26;1.40;;;1.10;;
65037;SDS011;51605;47.040;15.294;2023-03-23T07:15:52;1.38;;;1.02;;
65037;SDS011;51605;47.040;15.294;2023-03-23T07:18:18;1.73;;;1.00;;
65037;SDS011;51605;47.040;15.294;2023-03-23T07:23:17;1.40;;;1.10;;
65037;SDS011;51605;47.040;15.294;2023-03-23T07:25:44;1.00;;;0.90;;
65037;SDS011;51605;47.040;15.294;2023-03-23T07:28:11;1.30;;;0.98;;
65037;SDS011;51605;47.040;15.294;2023-03-23T07:30:37;1.10;;;0.95;;
65037;SDS011;51605;47.040;15.294;2023-03-23T07:33:06;1.38;;;1.08;;
65037;SDS011;51605;47.040;15.294;2023-03-23T07:35:33;1.10;;;1.00;;
65037;SDS011;51605;47.040;15.294;2023-03-23T07:37:59;1.35;;;0.93;;
65037;SDS011;51605;47.040;15.294;2023-03-23T07:40:25;1.05;;;0.90;;
65037;SDS011;51605;47.040;15.294;2023-03-23T07:42:55;2.85;;;1.20;;
65037;SDS011;51605;47.040;15.294;2023-03-23T07:45:22;1.27;;;1.05;;
65037;SDS011;51605;47.040;15.294;2023-03-23T07:47:48;2.47;;;1.15;;
65037;SDS011;51605;47.040;15.294;2023-03-23T07:50:14;1.60;;;1.10;;
65037;SDS011;51605;47.040;15.294;2023-03-23T07:52:39;3.30;;;1.27;;
65037;SDS011;51605;47.040;15.294;2023-03-23T07:55:07;2.92;;;1.20;;
65037;SDS011;51605;47.040;15.294;2023-03-23T07:57:36;3.75;;;1.20;;
65037;SDS011;51605;47.040;15.294;2023-03-23T08:00:03;2.00;;;1.23;;
65037;SDS011;51605;47.040;15.294;2023-03-23T08:02:56;2.97;;;1.10;;
65037;SDS011;51605;47.040;15.294;2023-03-23T08:05:22;1.90;;;1.10;;
65037;SDS011;51605;47.040;15.294;2023-03-23T08:07:50;1.50;;;1.10;;
65037;SDS011;51605;47.040;15.294;2023-03-23T08:10:19;1.60;;;1.30;;
65037;SDS011;51605;47.040;15.294;2023-03-23T08:12:49;2.67;;;1.20;;
65037;SDS011;51605;47.040;15.294;2023-03-23T08:15:20;1.23;;;1.00;;
65037;SDS011;51605;47.040;15.294;2023-03-23T08:17:46;1.23;;;1.08;;
65037;SDS011;51605;47.040;15.294;2023-03-23T08:20:12;2.63;;;1.40;;
65037;SDS011;51605;47.040;15.294;2023-03-23T08:22:39;2.03;;;1.20;;
65037;SDS011;51605;47.040;15.294;2023-03-23T08:25:08;1.60;;;1.10;;
65037;SDS011;51605;47.040;15.294;2023-03-23T08:27:35;1.52;;;1.10;;
65037;SDS011;51605;47.040;15.294;2023-03-23T08:30:02;1.93;;;1.20;;
65037;SDS011;51605;47.040;15.294;2023-03-23T08:32:30;1.95;;;1.40;;
65037;SDS011;51605;47.040;15.294;2023-03-23T08:34:56;3.20;;;1.05;;
65037;SDS011;51605;47.040;15.294;2023-03-23T08:37:22;2.08;;;1.17;;
65037;SDS011;51605;47.040;15.294;2023-03-23T08:39:50;3.22;;;1.25;;
65037;SDS011;51605;47.040;15.294;2023-03-23T08:42:19;1.30;;;1.10;;
65037;SDS011;51605;47.040;15.294;2023-03-23T08:44:45;2.63;;;1.30;;
65037;SDS011;51605;47.040;15.294;2023-03-23T08:47:10;3.47;;;1.35;;
65037;SDS011;51605;47.040;15.294;2023-03-23T08:49:36;3.22;;;1.45;;
65037;SDS011;51605;47.040;15.294;2023-03-23T08:52:02;1.60;;;1.00;;
65037;SDS011;51605;47.040;15.294;2023-03-23T08:54:28;3.73;;;1.20;;
65037;SDS011;51605;47.040;15.294;2023-03-23T08:56:58;1.35;;;1.20;;
65037;SDS011;51605;47.040;15.294;2023-03-23T08:59:25;2.08;;;1.25;;
65037;SDS011;51605;47.040;15.294;2023-03-23T09:01:52;2.22;;;1.23;;
65037;SDS011;51605;47.040;15.294;2023-03-23T09:04:17;2.67;;;1.13;;
65037;SDS011;51605;47.040;15.294;2023-03-23T09:06:43;1.50;;;1.20;;
65037;SDS011;51605;47.040;15.294;2023-03-23T09:09:10;1.30;;;1.10;;
65037;SDS011;51605;47.040;15.294;2023-03-23T09:11:37;1.88;;;1.33;;
65037;SDS011;51605;47.040;15.294;2023-03-23T09:14:04;1.48;;;1.20;;
65037;SDS011;51605;47.040;15.294;2023-03-23T09:16:31;1.50;;;1.20;;
65037;SDS011;51605;47.040;15.294;2023-03-23T09:18:57;1.98;;;1.23;;
65037;SDS011;51605;47.040;15.294;2023-03-23T09:21:24;1.92;;;1.40;;
65037;SDS011;51605;47.040;15.294;2023-03-23T09:23:50;2.28;;;1.33;;
65037;SDS011;51605;47.040;15.294;2023-03-23T09:26:16;1.33;;;1.20;;
65037;SDS011;51605;47.040;15.294;2023-03-23T09:28:42;2.13;;;1.20;;
65037;SDS011;51605;47.040;15.294;2023-03-23T09:31:09;1.88;;;1.30;;
65037;SDS011;51605;47.040;15.294;2023-03-23T09:33:36;3.22;;;1.25;;
65037;SDS011;51605;47.040;15.294;2023-03-23T09:36:02;1.90;;;1.30;;
65037;SDS011;51605;47.040;15.294;2023-03-23T09:38:30;3.30;;;1.40;;
65037;SDS011;51605;47.040;15.294;2023-03-23T09:41:10;2.03;;;1.20;;
65037;SDS011;51605;47.040;15.294;2023-03-23T09:44:22;2.30;;;1.50;;
65037;SDS011;51605;47.040;15.294;2023-03-23T09:47:12;1.60;;;1.30;;
65037;SDS011;51605;47.040;15.294;2023-03-23T09:49:45;1.77;;;1.20;;
65037;SDS011;51605;47.040;15.294;2023-03-23T09:52:18;1.67;;;1.20;;
65037;SDS011;51605;47.040;15.294;2023-03-23T09:54:51;3.58;;;1.13;;
65037;SDS011;51605;47.040;15.294;2023-03-23T09:57:27;2.70;;;1.50;;
65037;SDS011;51605;47.040;15.294;2023-03-23T10:00:10;2.47;;;1.50;;
65037;SDS011;51605;47.040;15.294;2023-03-23T10:02:45;1.70;;;1.20;;
65037;SDS011;51605;47.040;15.294;2023-03-23T10:05:41;2.00;;;1.30;;
65037;SDS011;51605;47.040;15.294;2023-03-23T10:08:20;1.88;;;1.30;;
65037;SDS011;51605;47.040;15.294;2023-03-23T10:15:52;1.45;;;1.20;;
65037;SDS011;51605;47.040;15.294;2023-03-23T10:18:23;2.35;;;1.40;;
65037;SDS011;51605;47.040;15.294;2023-03-23T10:20:57;2.42;;;1.30;;
65037;SDS011;51605;47.040;15.294;2023-03-23T10:29:15;1.92;;;1.20;;
65037;SDS011;51605;47.040;15.294;2023-03-23T10:31:57;1.23;;;1.10;;
65037;SDS011;51605;47.040;15.294;2023-03-23T10:34:34;2.00;;;1.48;;
65037;SDS011;51605;47.040;15.294;2023-03-23T10:39:59;2.00;;;1.02;;
65037;SDS011;51605;47.040;15.294;2023-03-23T10:44:59;2.25;;;1.20;;
65037;SDS011;51605;47.040;15.294;2023-03-23T10:47:36;2.00;;;1.30;;
65037;SDS011;51605;47.040;15.294;2023-03-23T10:50:04;2.33;;;1.30;;
65037;SDS011;51605;47.040;15.294;2023-03-23T10:52:38;2.22;;;1.30;;
65037;SDS011;51605;47.040;15.294;2023-03-23T10:57:39;2.47;;;1.15;;
65037;SDS011;51605;47.040;15.294;2023-03-23T11:00:15;2.38;;;1.33;;
65037;SDS011;51605;47.040;15.294;2023-03-23T11:02:47;1.50;;;1.17;;
65037;SDS011;51605;47.040;15.294;2023-03-23T11:05:50;1.55;;;1.30;;
65037;SDS011;51605;47.040;15.294;2023-03-23T11:10:50;2.58;;;1.17;;
65037;SDS011;51605;47.040;15.294;2023-03-23T11:13:18;1.95;;;1.30;;
65037;SDS011;51605;47.040;15.294;2023-03-23T11:15:46;2.13;;;1.20;;
65037;SDS011;51605;47.040;15.294;2023-03-23T11:18:19;2.33;;;1.20;;
65037;SDS011;51605;47.040;15.294;2023-03-23T11:20:48;1.48;;;1.10;;
65037;SDS011;51605;47.040;15.294;2023-03-23T11:23:27;1.80;;;1.20;;
65037;SDS011;51605;47.040;15.294;2023-03-23T11:26:15;2.00;;;1.15;;
65037;SDS011;51605;47.040;15.294;2023-03-23T11:28:46;1.52;;;1.13;;
65037;SDS011;51605;47.040;15.294;2023-03-23T11:31:39;1.63;;;0.88;;
65037;SDS011;51605;47.040;15.294;2023-03-23T11:34:21;0.82;;;0.80;;
65037;SDS011;51605;47.040;15.294;2023-03-23T11:36:53;2.60;;;0.90;;
65037;SDS011;51605;47.040;15.294;2023-03-23T11:41:58;1.20;;;1.00;;
65037;SDS011;51605;47.040;15.294;2023-03-23T11:44:39;1.35;;;1.02;;
65037;SDS011;51605;47.040;15.294;2023-03-23T11:50:10;1.48;;;1.02;;
65037;SDS011;51605;47.040;15.294;2023-03-23T11:58:13;2.13;;;1.00;;
65037;SDS011;51605;47.040;15.294;2023-03-23T12:00:55;1.33;;;0.98;;
65037;SDS011;51605;47.040;15.294;2023-03-23T12:06:09;3.05;;;1.13;;
65037;SDS011;51605;47.040;15.294;2023-03-23T12:11:32;2.70;;;1.30;;
65037;SDS011;51605;47.040;15.294;2023-03-23T12:22:20;1.92;;;0.98;;
65037;SDS011;51605;47.040;15.294;2023-03-23T12:28:11;2.92;;;1.38;;
65037;SDS011;51605;47.040;15.294;2023-03-23T12:39:10;2.67;;;1.20;;
65037;SDS011;51605;47.040;15.294;2023-03-23T12:44:31;2.90;;;1.50;;
65037;SDS011;51605;47.040;15.294;2023-03-23T12:52:14;3.72;;;1.67;;
65037;SDS011;51605;47.040;15.294;2023-03-23T12:57:16;3.03;;;1.48;;
65037;SDS011;51605;47.040;15.294;2023-03-23T12:59:52;4.32;;;1.88;;
65037;SDS011;51605;47.040;15.294;2023-03-23T13:02:28;7.15;;;1.85;;
65037;SDS011;51605;47.040;15.294;2023-03-23T13:05:00;3.85;;;1.83;;
65037;SDS011;51605;47.040;15.294;2023-03-23T13:07:33;3.35;;;1.70;;
65037;SDS011;51605;47.040;15.294;2023-03-23T13:10:05;3.75;;;1.80;;
65037;SDS011;51605;47.040;15.294;2023-03-23T13:12:47;5.15;;;1.83;;
65037;SDS011;51605;47.040;15.294;2023-03-23T13:18:18;3.92;;;2.00;;
65037;SDS011;51605;47.040;15.294;2023-03-23T13:20:53;4.95;;;1.85;;
65037;SDS011;51605;47.040;15.294;2023-03-23T13:23:42;4.77;;;2.07;;
65037;SDS011;51605;47.040;15.294;2023-03-23T13:26:11;3.75;;;1.80;;
65037;SDS011;51605;47.040;15.294;2023-03-23T13:31:37;3.90;;;1.80;;
65037;SDS011;51605;47.040;15.294;2023-03-23T13:36:59;3.92;;;2.20;;
65037;SDS011;51605;47.040;15.294;2023-03-23T13:39:32;3.47;;;2.00;;
65037;SDS011;51605;47.040;15.294;2023-03-23T13:44:41;4.97;;;1.92;;
65037;SDS011;51605;47.040;15.294;2023-03-23T13:50:02;4.60;;;2.00;;
65037;SDS011;51605;47.040;15.294;2023-03-23T13:57:51;3.85;;;1.73;;
65037;SDS011;51605;47.040;15.294;2023-03-23T14:05:43;3.78;;;2.00;;
65037;SDS011;51605;47.040;15.294;2023-03-23T14:08:25;3.08;;;1.75;;
65037;SDS011;51605;47.040;15.294;2023-03-23T14:18:53;4.60;;;2.00;;
65037;SDS011;51605;47.040;15.294;2023-03-23T14:21:24;4.00;;;1.88;;
65037;SDS011;51605;47.040;15.294;2023-03-23T14:24:43;4.30;;;2.00;;
65037;SDS011;51605;47.040;15.294;2023-03-23T14:27:01;5.20;;;1.83;;
65037;SDS011;51605;47.040;15.294;2023-03-23T14:29:32;4.95;;;2.30;;
65037;SDS011;51605;47.040;15.294;2023-03-23T14:31:58;4.82;;;1.95;;
65037;SDS011;51605;47.040;15.294;2023-03-23T14:34:26;5.03;;;2.10;;
65037;SDS011;51605;47.040;15.294;2023-03-23T14:36:54;3.38;;;2.00;;
65037;SDS011;51605;47.040;15.294;2023-03-23T14:39:24;6.45;;;2.35;;
65037;SDS011;51605;47.040;15.294;2023-03-23T14:41:56;4.85;;;2.17;;
65037;SDS011;51605;47.040;15.294;2023-03-23T14:44:29;3.90;;;2.10;;
65037;SDS011;51605;47.040;15.294;2023-03-23T14:46:58;6.90;;;2.33;;
65037;SDS011;51605;47.040;15.294;2023-03-23T14:49:40;5.72;;;2.40;;
65037;SDS011;51605;47.040;15.294;2023-03-23T14:52:15;4.28;;;1.83;;
65037;SDS011;51605;47.040;15.294;2023-03-23T14:54:42;4.07;;;2.13;;
65037;SDS011;51605;47.040;15.294;2023-03-23T14:59:45;3.60;;;2.20;;
65037;SDS011;51605;47.040;15.294;2023-03-23T15:02:13;4.70;;;2.28;;
65037;SDS011;51605;47.040;15.294;2023-03-23T15:05:10;4.55;;;2.42;;
65037;SDS011;51605;47.040;15.294;2023-03-23T15:07:44;6.50;;;2.00;;
65037;SDS011;51605;47.040;15.294;2023-03-23T15:10:14;4.75;;;2.28;;
65037;SDS011;51605;47.040;15.294;2023-03-23T15:12:43;5.35;;;2.17;;
65037;SDS011;51605;47.040;15.294;2023-03-23T15:15:16;4.00;;;2.08;;
65037;SDS011;51605;47.040;15.294;2023-03-23T15:17:50;4.20;;;2.05;;
65037;SDS011;51605;47.040;15.294;2023-03-23T15:20:21;4.40;;;2.17;;
65037;SDS011;51605;47.040;15.294;2023-03-23T15:22:53;7.40;;;2.10;;
65037;SDS011;51605;47.040;15.294;2023-03-23T15:25:21;4.05;;;2.00;;
65037;SDS011;51605;47.040;15.294;2023-03-23T15:27:52;4.40;;;2.05;;
65037;SDS011;51605;47.040;15.294;2023-03-23T15:30:37;4.18;;;2.10;;
65037;SDS011;51605;47.040;15.294;2023-03-23T15:33:12;5.60;;;2.00;;
65037;SDS011;51605;47.040;15.294;2023-03-23T15:35:41;3.63;;;1.83;;
65037;SDS011;51605;47.040;15.294;2023-03-23T15:38:30;4.18;;;2.05;;
65037;SDS011;51605;47.040;15.294;2023-03-23T15:40:58;6.95;;;2.03;;
65037;SDS011;51605;47.040;15.294;2023-03-23T15:43:32;3.97;;;2.03;;
65037;SDS011;51605;47.040;15.294;2023-03-23T15:48:29;3.92;;;1.98;;
65037;SDS011;51605;47.040;15.294;2023-03-23T15:50:56;3.83;;;2.00;;
65037;SDS011;51605;47.040;15.294;2023-03-23T15:53:33;3.15;;;1.85;;
65037;SDS011;51605;47.040;15.294;2023-03-23T15:56:03;5.05;;;2.38;;
65037;SDS011;51605;47.040;15.294;2023-03-23T15:58:30;6.22;;;1.90;;
65037;SDS011;51605;47.040;15.294;2023-03-23T16:00:57;3.30;;;1.73;;
65037;SDS011;51605;47.040;15.294;2023-03-23T16:03:26;3.17;;;1.85;;
65037;SDS011;51605;47.040;15.294;2023-03-23T16:05:56;5.70;;;2.00;;
65037;SDS011;51605;47.040;15.294;2023-03-23T16:08:24;3.92;;;2.15;;
65037;SDS011;51605;47.040;15.294;2023-03-23T16:10:50;4.20;;;1.85;;
65037;SDS011;51605;47.040;15.294;2023-03-23T16:13:16;4.33;;;2.03;;
65037;SDS011;51605;47.040;15.294;2023-03-23T16:15:42;3.65;;;1.90;;
65037;SDS011;51605;47.040;15.294;2023-03-23T16:18:16;3.60;;;1.65;;
65037;SDS011;51605;47.040;15.294;2023-03-23T16:20:44;3.95;;;1.90;;
65037;SDS011;51605;47.040;15.294;2023-03-23T16:23:10;3.17;;;1.90;;
65037;SDS011;51605;47.040;15.294;2023-03-23T16:25:36;4.35;;;1.98;;
65037;SDS011;51605;47.040;15.294;2023-03-23T16:28:02;3.13;;;1.80;;
65037;SDS011;51605;47.040;15.294;2023-03-23T16:30:28;3.55;;;1.92;;
65037;SDS011;51605;47.040;15.294;2023-03-23T16:32:58;3.40;;;1.83;;
65037;SDS011;51605;47.040;15.294;2023-03-23T16:35:24;3.03;;;1.80;;
65037;SDS011;51605;47.040;15.294;2023-03-23T16:37:51;4.13;;;2.00;;
65037;SDS011;51605;47.040;15.294;2023-03-23T16:40:19;3.83;;;1.60;;
65037;SDS011;51605;47.040;15.294;2023-03-23T16:42:46;3.13;;;1.73;;
65037;SDS011;51605;47.040;15.294;2023-03-23T16:45:12;4.05;;;1.77;;
65037;SDS011;51605;47.040;15.294;2023-03-23T16:47:39;2.97;;;1.90;;
65037;SDS011;51605;47.040;15.294;2023-03-23T16:50:06;3.22;;;1.90;;
65037;SDS011;51605;47.040;15.294;2023-03-23T16:52:35;4.47;;;1.70;;
65037;SDS011;51605;47.040;15.294;2023-03-23T16:55:05;4.22;;;2.10;;
65037;SDS011;51605;47.040;15.294;2023-03-23T17:00:09;3.85;;;1.70;;
65037;SDS011;51605;47.040;15.294;2023-03-23T17:02:40;6.07;;;3.08;;
65037;SDS011;51605;47.040;15.294;2023-03-23T17:05:07;3.30;;;1.80;;
65037;SDS011;51605;47.040;15.294;2023-03-23T17:07:37;3.00;;;1.77;;
65037;SDS011;51605;47.040;15.294;2023-03-23T17:10:04;3.08;;;1.75;;
65037;SDS011;51605;47.040;15.294;2023-03-23T17:12:31;3.95;;;1.80;;
65037;SDS011;51605;47.040;15.294;2023-03-23T17:14:58;3.20;;;1.80;;
65037;SDS011;51605;47.040;15.294;2023-03-23T17:17:23;4.07;;;1.88;;
65037;SDS011;51605;47.040;15.294;2023-03-23T17:19:49;3.58;;;1.75;;
65037;SDS011;51605;47.040;15.294;2023-03-23T17:22:15;3.22;;;1.70;;